HRHO2: North Canadian River

                                SHEF ID:       HRHO2     North Canadian River near Harrah
STATION TYPE:
Regulating: Stage = 15.00, Flow = 8563

STAGE RIV-FLOW WTR-TEMP DIS-OXY PH CONDUCT BAT-LOAD
ft cfs F mg/l su umho/cm volt
Ccp-Rev Ccp-Rev Ccp-Rev Ccp-Rev Ccp-Rev Ccp-Rev Ccp-Rev
(America/Chicago)
04/30 00:00 3.27 129 66.07 7.41 7.86 875 12.04
04/30 01:00 3.26 127 65.35 7.31 7.81 878 12.06
04/30 02:00 3.25 125 64.62 7.25 7.79 881 12.06
04/30 03:00 3.25 125 63.93 7.26 7.76 883 12.05
04/30 04:00 3.25 125 63.25 7.34 7.74 885 12.04
04/30 05:00 3.26 127 62.73 7.30 7.73 887 12.01
04/30 06:00 3.28 131 62.28 7.30 7.70 892 12.01
04/30 07:00 3.28 131 61.93 7.39 7.71 894 11.98
04/30 08:00 3.29 133 61.84 7.45 7.72 895 11.97
04/30 09:00 3.29 133 62.49 8.04 7.75 897 12.10
04/30 10:00 3.29 133 63.97 8.32 7.78 899 12.62
04/30 11:00 3.29 133 65.19 8.73 7.83 901 12.94
04/30 12:00 3.30 135 67.37 8.87 7.88 901 13.01
04/30 13:00 3.30 135 68.58 9.01 7.90 900 13.01
04/30 14:00 3.30 135 71.58 9.19 7.99 900 ----
04/30 15:00 3.30 135 72.93 9.31 8.02 900 13.01
04/30 16:00 3.30 135 73.65 9.03 8.06 898 13.14
04/30 17:00 3.30 135 73.31 8.96 8.08 898 13.17
04/30 18:00 3.29 133 72.21 8.79 8.11 895 13.13
04/30 19:00 3.29 133 71.04 8.64 8.11 893 13.03
04/30 20:00 3.29 133 69.80 8.21 8.08 893 12.81
04/30 21:00 3.28 131 68.79 8.09 8.04 889 12.52
04/30 22:00 3.27 129 67.91 7.70 7.98 888 12.31
04/30 23:00 3.27 129 67.48 7.47 7.95 886 12.15
Data processed at Fri 01May2026 04:25 GMT

NOTICE: If you are parsing this page

Please convert to using our Data API. Starting early 2026 we will be migrating to: https://water.usace.army.mil with modern pages rendered in JavaScript. When this migration completes you will no longer be able to scrape this page! CWMSDataAPI (CDA)

Timeseries IDs (TSIDs)

TSIDs used from left to right in the data table
HARR.Stage.Inst.1Hour.0.Ccp-Rev
HARR.Flow.Inst.1Hour.0.Ccp-Rev
HARR.Temp-Water.Inst.1Hour.0.Ccp-Rev
HARR.Conc-DO.Inst.1Hour.0.Ccp-Rev
HARR.pH.Inst.1Hour.0.Ccp-Rev
HARR.Cond-Water.Inst.1Hour.0.Ccp-Rev
HARR.Volt-Battery Load.Inst.1Hour.0.Ccp-Rev

                            

All information presented herein is the property of the government of the United States of America and may be revised or deleted at any time without prior notice. Dissemination of this information without the expressed written consent of the Public Affairs Office, Tulsa District U.S. Army Corps of Engineers is strictly prohibited. These data are gathered electronically and, as presented, have NOT undergone any form of quality control. These data are NOT guaranteed to be valid or correct.